Time,TemperatureF,DewpointF,PressureIn,WindDirection,WindDirectionDegrees,WindSpeedMPH,WindSpeedGustMPH,Humidity,HourlyPrecipIn,Conditions,Clouds,dailyrainin,SoftwareType,DateUTC
2013-03-29 00:04:00,54.1,29.8,29.12,NE,52,0.0,0.0,39,0.00,,---,0.00,VWS V14.01,2013-03-29 05:04:00,
2013-03-29 00:09:00,53.8,29.4,29.12,NE,52,0.0,0.0,39,0.00,,---,0.00,VWS V14.01,2013-03-29 05:09:00,
2013-03-29 00:15:00,53.6,29.3,29.12,ENE,76,0.0,0.0,39,0.00,,---,0.00,VWS V14.01,2013-03-29 05:15:00,
2013-03-29 00:21:00,53.6,29.3,29.12,ENE,76,0.0,0.0,39,0.00,,---,0.00,VWS V14.01,2013-03-29 05:21:00,
2013-03-29 00:26:00,53.6,29.3,29.12,ENE,76,0.0,0.0,39,0.00,,---,0.00,VWS V14.01,2013-03-29 05:26:00,
2013-03-29 00:32:00,53.4,29.1,29.12,ENE,76,0.0,0.0,39,0.00,,---,0.00,VWS V14.01,2013-03-29 05:32:00,
2013-03-29 00:37:00,53.1,28.8,29.12,NNE,30,0.0,0.0,39,0.00,,---,0.00,VWS V14.01,2013-03-29 05:37:00,
2013-03-29 00:43:00,52.9,29.2,29.12,NE,35,0.0,0.0,40,0.00,,---,0.00,VWS V14.01,2013-03-29 05:43:00,
2013-03-29 00:48:00,52.9,29.2,29.12,NE,35,0.0,0.0,40,0.00,,---,0.00,VWS V14.01,2013-03-29 05:48:00,
2013-03-29 00:54:00,52.7,29.1,29.12,NE,35,0.0,0.0,40,0.00,,---,0.00,VWS V14.01,2013-03-29 05:54:00,
2013-03-29 01:00:00,52.2,30.4,29.12,NE,35,0.0,0.0,43,0.00,,---,0.00,VWS V14.01,2013-03-29 06:00:00,
2013-03-29 01:05:00,52.2,30.4,29.12,ENE,76,0.0,0.0,43,0.00,,---,0.00,VWS V14.01,2013-03-29 06:05:00,
2013-03-29 01:11:00,51.3,31.2,29.12,ENE,76,0.0,0.0,46,0.00,,---,0.00,VWS V14.01,2013-03-29 06:11:00,
2013-03-29 01:17:00,50.5,31.6,29.12,ENE,76,0.0,0.0,48,0.00,,---,0.00,VWS V14.01,2013-03-29 06:17:00,
2013-03-29 01:23:00,49.8,31.9,29.12,ENE,76,0.0,0.0,50,0.00,,---,0.00,VWS V14.01,2013-03-29 06:23:00,
2013-03-29 01:28:00,49.3,31.9,29.12,ENE,76,0.0,0.0,51,0.00,,---,0.00,VWS V14.01,2013-03-29 06:28:00,
2013-03-29 01:33:00,49.3,31.9,29.12,ENE,76,0.0,0.0,51,0.00,,---,0.00,VWS V14.01,2013-03-29 06:33:00,
2013-03-29 01:39:00,48.7,33.3,29.12,ENE,76,0.0,0.0,55,0.00,,---,0.00,VWS V14.01,2013-03-29 06:39:00,
2013-03-29 01:45:00,48.4,33.4,29.12,ENE,76,0.0,0.0,56,0.00,,---,0.00,VWS V14.01,2013-03-29 06:45:00,
2013-03-29 01:50:00,48.4,33.4,29.12,ENE,76,0.0,0.0,56,0.00,,---,0.00,VWS V14.01,2013-03-29 06:50:00,
2013-03-29 01:56:00,48.0,34.0,29.12,ENE,76,0.0,0.0,58,0.00,,---,0.00,VWS V14.01,2013-03-29 06:56:00,
2013-03-29 02:01:00,47.7,34.0,29.12,ENE,76,0.0,0.0,59,0.00,,---,0.00,VWS V14.01,2013-03-29 07:01:00,
2013-03-29 02:06:00,47.7,34.9,29.12,ENE,76,0.0,0.0,61,0.00,,---,0.00,VWS V14.01,2013-03-29 07:06:00,
2013-03-29 02:12:00,47.3,34.5,29.12,ENE,76,0.0,0.0,61,0.00,,---,0.00,VWS V14.01,2013-03-29 07:12:00,
2013-03-29 02:17:00,47.3,34.5,29.12,ENE,76,0.0,0.0,61,0.00,,---,0.00,VWS V14.01,2013-03-29 07:17:00,
2013-03-29 02:22:00,47.3,35.8,29.12,ENE,76,0.0,0.0,64,0.00,,---,0.00,VWS V14.01,2013-03-29 07:22:00,
2013-03-29 02:28:00,47.1,36.0,29.12,ENE,76,0.0,0.0,65,0.00,,---,0.00,VWS V14.01,2013-03-29 07:28:00,
2013-03-29 02:33:00,47.1,36.0,29.12,ENE,76,0.0,0.0,65,0.00,,---,0.00,VWS V14.01,2013-03-29 07:33:00,
2013-03-29 02:38:00,47.1,36.4,29.12,ENE,76,0.0,0.0,66,0.00,,---,0.00,VWS V14.01,2013-03-29 07:38:00,
2013-03-29 02:43:00,47.1,37.1,29.12,ENE,76,0.0,0.0,68,0.00,,---,0.00,VWS V14.01,2013-03-29 07:43:00,
2013-03-29 02:49:00,47.1,37.1,29.12,ENE,76,0.0,0.0,68,0.00,,---,0.00,VWS V14.01,2013-03-29 07:49:00,
2013-03-29 02:54:00,47.1,37.1,29.12,ENE,76,0.0,0.0,68,0.00,,---,0.00,VWS V14.01,2013-03-29 07:54:00,
2013-03-29 03:00:00,47.1,37.1,29.12,ENE,76,0.0,0.0,68,0.00,,---,0.00,VWS V14.01,2013-03-29 08:00:00,
2013-03-29 03:06:00,47.8,37.4,29.12,ENE,76,0.0,0.0,67,0.00,,---,0.00,VWS V14.01,2013-03-29 08:06:00,
2013-03-29 03:11:00,47.8,37.4,29.12,ENE,76,0.0,0.0,67,0.00,,---,0.00,VWS V14.01,2013-03-29 08:11:00,
2013-03-29 03:17:00,48.0,37.2,29.12,ENE,76,0.0,0.0,66,0.00,,---,0.00,VWS V14.01,2013-03-29 08:17:00,
2013-03-29 03:22:00,48.0,37.2,29.12,ENE,76,0.0,0.0,66,0.00,,---,0.00,VWS V14.01,2013-03-29 08:22:00,
2013-03-29 03:28:00,48.2,37.0,29.12,ENE,76,0.0,0.0,65,0.00,,---,0.00,VWS V14.01,2013-03-29 08:28:00,
2013-03-29 03:34:00,48.2,37.0,29.12,ENE,60,0.0,0.0,65,0.00,,---,0.00,VWS V14.01,2013-03-29 08:34:00,
2013-03-29 03:39:00,48.7,35.9,29.12,ENE,60,0.0,0.0,61,0.00,,---,0.00,VWS V14.01,2013-03-29 08:39:00,
2013-03-29 03:45:00,48.7,35.9,29.12,ENE,60,0.0,0.0,61,0.00,,---,0.00,VWS V14.01,2013-03-29 08:45:00,
2013-03-29 03:51:00,48.7,35.9,29.12,NE,43,0.0,0.0,61,0.00,,---,0.00,VWS V14.01,2013-03-29 08:51:00,
2013-03-29 03:57:00,48.9,34.8,29.12,NE,43,0.0,0.0,58,0.00,,---,0.00,VWS V14.01,2013-03-29 08:57:00,
2013-03-29 04:02:00,48.9,33.9,29.09,East,81,0.0,0.0,56,0.00,,---,0.00,VWS V14.01,2013-03-29 09:02:00,
2013-03-29 04:07:00,48.7,33.8,29.09,ENE,69,0.0,0.0,56,0.00,,---,0.00,VWS V14.01,2013-03-29 09:07:00,
2013-03-29 04:13:00,48.7,33.8,29.09,ENE,77,0.0,0.0,56,0.00,,---,0.00,VWS V14.01,2013-03-29 09:13:00,
2013-03-29 04:18:00,48.0,33.5,29.09,ENE,77,0.0,0.0,57,0.00,,---,0.00,VWS V14.01,2013-03-29 09:18:00,
2013-03-29 04:23:00,47.8,33.4,29.09,ENE,77,0.0,0.0,57,0.00,,---,0.00,VWS V14.01,2013-03-29 09:23:00,
2013-03-29 04:28:00,46.9,33.4,29.09,ENE,77,0.0,0.0,59,0.00,,---,0.00,VWS V14.01,2013-03-29 09:28:00,
2013-03-29 04:34:00,46.8,34.0,29.12,ENE,77,0.0,0.0,61,0.00,,---,0.00,VWS V14.01,2013-03-29 09:34:00,
2013-03-29 04:39:00,46.8,34.0,29.12,ENE,77,0.0,0.0,61,0.00,,---,0.00,VWS V14.01,2013-03-29 09:39:00,
2013-03-29 04:45:00,46.2,34.3,29.12,ENE,77,0.0,0.0,63,0.00,,---,0.00,VWS V14.01,2013-03-29 09:45:00,
2013-03-29 04:51:00,46.0,35.0,29.12,ENE,77,0.0,0.0,65,0.00,,---,0.00,VWS V14.01,2013-03-29 09:51:00,
2013-03-29 04:56:00,46.0,35.0,29.12,North,2,0.0,0.0,65,0.00,,---,0.00,VWS V14.01,2013-03-29 09:56:00,
2013-03-29 05:01:00,45.9,34.8,29.12,NNE,20,0.0,0.0,65,0.00,,---,0.00,VWS V14.01,2013-03-29 10:01:00,
2013-03-29 05:07:00,45.9,35.2,29.12,ENE,73,0.0,0.0,66,0.00,,---,0.00,VWS V14.01,2013-03-29 10:07:00,
2013-03-29 05:12:00,46.0,35.7,29.12,ENE,73,0.0,0.0,67,0.00,,---,0.00,VWS V14.01,2013-03-29 10:12:00,
2013-03-29 05:17:00,46.0,35.3,29.12,ENE,73,0.0,0.0,66,0.00,,---,0.00,VWS V14.01,2013-03-29 10:17:00,
2013-03-29 05:22:00,46.2,35.5,29.12,East,86,0.0,0.0,66,0.00,,---,0.00,VWS V14.01,2013-03-29 10:22:00,
2013-03-29 05:28:00,46.0,35.0,29.12,East,101,0.0,0.0,65,0.00,,---,0.00,VWS V14.01,2013-03-29 10:28:00,
2013-03-29 05:33:00,46.0,35.0,29.12,East,101,0.0,0.0,65,0.00,,---,0.00,VWS V14.01,2013-03-29 10:33:00,
2013-03-29 05:38:00,45.7,34.6,29.12,East,101,0.0,0.0,65,0.00,,---,0.00,VWS V14.01,2013-03-29 10:38:00,
2013-03-29 05:44:00,45.3,33.9,29.12,East,101,0.0,0.0,64,0.00,,---,0.00,VWS V14.01,2013-03-29 10:44:00,
2013-03-29 05:50:00,45.1,33.7,29.12,East,101,0.0,0.0,64,0.00,,---,0.00,VWS V14.01,2013-03-29 10:50:00,
2013-03-29 05:56:00,45.0,33.9,29.12,East,101,0.0,0.0,65,0.00,,---,0.00,VWS V14.01,2013-03-29 10:56:00,
2013-03-29 06:01:00,44.6,33.6,29.12,East,101,0.0,0.0,65,0.00,,---,0.00,VWS V14.01,2013-03-29 11:01:00,
2013-03-29 06:06:00,44.4,33.8,29.12,East,101,0.0,0.0,66,0.00,,---,0.00,VWS V14.01,2013-03-29 11:06:00,
2013-03-29 06:12:00,44.2,33.6,29.12,East,101,0.0,0.0,66,0.00,,---,0.00,VWS V14.01,2013-03-29 11:12:00,
2013-03-29 06:18:00,43.9,33.3,29.12,East,101,0.0,0.0,66,0.00,,---,0.00,VWS V14.01,2013-03-29 11:18:00,
2013-03-29 06:24:00,43.7,33.1,29.12,East,101,0.0,0.0,66,0.00,,---,0.00,VWS V14.01,2013-03-29 11:24:00,
2013-03-29 06:30:00,43.2,33.0,29.12,East,101,0.0,0.0,67,0.00,,---,0.00,VWS V14.01,2013-03-29 11:30:00,
2013-03-29 06:36:00,43.2,33.3,29.12,East,101,0.0,0.0,68,0.00,,---,0.00,VWS V14.01,2013-03-29 11:36:00,
2013-03-29 06:41:00,43.0,33.2,29.12,East,101,0.0,0.0,68,0.00,,---,0.00,VWS V14.01,2013-03-29 11:41:00,
2013-03-29 06:46:00,43.0,33.2,29.12,East,101,0.0,0.0,68,0.00,,---,0.00,VWS V14.01,2013-03-29 11:46:00,
2013-03-29 06:51:00,42.8,33.3,29.12,East,101,0.0,0.0,69,0.00,,---,0.00,VWS V14.01,2013-03-29 11:51:00,
2013-03-29 06:57:00,42.8,33.3,29.12,East,101,0.0,0.0,69,0.00,,---,0.00,VWS V14.01,2013-03-29 11:57:00,
2013-03-29 07:02:00,42.4,33.0,29.12,East,101,0.0,0.0,69,0.00,,---,0.00,VWS V14.01,2013-03-29 12:02:00,
2013-03-29 07:08:00,42.4,33.4,29.12,East,101,0.0,0.0,70,0.00,,---,0.00,VWS V14.01,2013-03-29 12:08:00,
2013-03-29 07:13:00,42.3,33.2,29.12,East,101,0.0,0.0,70,0.00,,---,0.00,VWS V14.01,2013-03-29 12:13:00,
2013-03-29 07:19:00,42.1,33.4,29.15,East,101,0.0,0.0,71,0.00,,---,0.00,VWS V14.01,2013-03-29 12:19:00,
2013-03-29 07:25:00,41.9,32.8,29.15,East,101,0.0,0.0,70,0.00,,---,0.00,VWS V14.01,2013-03-29 12:25:00,
2013-03-29 07:30:00,41.7,33.0,29.15,East,101,0.0,0.0,71,0.00,,---,0.00,VWS V14.01,2013-03-29 12:30:00,
2013-03-29 07:36:00,41.7,33.4,29.15,East,101,0.0,0.0,72,0.00,,---,0.00,VWS V14.01,2013-03-29 12:36:00,
2013-03-29 07:41:00,41.7,33.4,29.15,East,101,0.0,0.0,72,0.00,,---,0.00,VWS V14.01,2013-03-29 12:41:00,
2013-03-29 07:47:00,42.8,34.8,29.15,East,101,0.0,0.0,73,0.00,,---,0.00,VWS V14.01,2013-03-29 12:47:00,
2013-03-29 07:53:00,43.7,35.6,29.15,East,101,0.0,0.0,73,0.00,,---,0.00,VWS V14.01,2013-03-29 12:53:00,
2013-03-29 07:58:00,44.2,36.2,29.15,ENE,69,0.0,0.0,73,0.00,,---,0.00,VWS V14.01,2013-03-29 12:58:00,
2013-03-29 08:03:00,44.2,36.2,29.15,NE,46,0.0,0.0,73,0.00,,---,0.00,VWS V14.01,2013-03-29 13:03:00,
2013-03-29 08:09:00,44.2,36.2,29.15,ENE,57,2.7,2.7,73,0.00,,---,0.00,VWS V14.01,2013-03-29 13:09:00,
2013-03-29 08:14:00,45.1,36.3,29.15,ESE,102,0.0,0.0,71,0.00,,---,0.00,VWS V14.01,2013-03-29 13:14:00,
2013-03-29 08:19:00,45.9,36.6,29.15,ESE,102,0.0,0.0,70,0.00,,---,0.00,VWS V14.01,2013-03-29 13:19:00,
2013-03-29 08:25:00,46.4,36.4,29.15,East,100,0.0,2.7,68,0.00,,---,0.00,VWS V14.01,2013-03-29 13:25:00,
2013-03-29 08:31:00,46.6,36.6,29.15,ESE,121,2.7,2.7,68,0.00,,---,0.00,VWS V14.01,2013-03-29 13:31:00,
2013-03-29 08:37:00,47.8,35.9,29.15,ESE,121,2.7,2.7,63,0.00,,---,0.00,VWS V14.01,2013-03-29 13:37:00,
2013-03-29 08:42:00,47.8,35.5,29.15,ENE,66,0.0,0.0,62,0.00,,---,0.00,VWS V14.01,2013-03-29 13:42:00,
2013-03-29 08:47:00,49.6,36.3,29.15,ENE,66,0.0,0.0,60,0.00,,---,0.00,VWS V14.01,2013-03-29 13:47:00,
2013-03-29 08:53:00,50.2,35.1,29.15,SE,134,0.0,0.0,56,0.00,,---,0.00,VWS V14.01,2013-03-29 13:53:00,
2013-03-29 08:59:00,50.2,35.1,29.15,SE,134,0.0,0.0,56,0.00,,---,0.00,VWS V14.01,2013-03-29 13:59:00,
2013-03-29 09:04:00,50.9,33.4,29.15,SE,134,0.0,3.1,51,0.00,,---,0.00,VWS V14.01,2013-03-29 14:04:00,
2013-03-29 09:10:00,51.6,33.6,29.15,SE,134,0.0,0.0,50,0.00,,---,0.00,VWS V14.01,2013-03-29 14:10:00,
2013-03-29 09:15:00,52.0,33.4,29.15,ENE,76,3.1,3.1,49,0.00,,---,0.00,VWS V14.01,2013-03-29 14:15:00,
2013-03-29 09:21:00,52.5,33.9,29.15,NE,38,3.1,3.1,49,0.00,,---,0.00,VWS V14.01,2013-03-29 14:21:00,
2013-03-29 09:27:00,53.1,34.4,29.15,East,93,0.0,0.0,49,0.00,,---,0.00,VWS V14.01,2013-03-29 14:27:00,
2013-03-29 09:33:00,54.3,35.1,29.15,North,11,3.6,3.6,48,0.00,,---,0.00,VWS V14.01,2013-03-29 14:33:00,
2013-03-29 09:38:00,55.0,34.7,29.15,North,11,3.6,3.6,46,0.00,,---,0.00,VWS V14.01,2013-03-29 14:38:00,
2013-03-29 09:43:00,55.9,34.9,29.15,East,85,3.1,3.1,45,0.00,,---,0.00,VWS V14.01,2013-03-29 14:43:00,
2013-03-29 09:49:00,55.9,33.8,29.15,NNE,30,2.7,2.7,43,0.00,,---,0.00,VWS V14.01,2013-03-29 14:49:00,
2013-03-29 09:54:00,56.7,34.4,29.15,East,91,0.0,0.0,43,0.00,,---,0.00,VWS V14.01,2013-03-29 14:54:00,
2013-03-29 10:00:00,56.7,34.4,29.15,SSE,148,0.0,0.0,43,0.00,,---,0.00,VWS V14.01,2013-03-29 15:00:00,
2013-03-29 10:06:00,58.5,34.9,29.15,NNE,30,3.6,3.6,41,0.00,,---,0.00,VWS V14.01,2013-03-29 15:06:00,
2013-03-29 10:11:00,58.6,34.4,29.15,East,80,0.0,0.0,40,0.00,,---,0.00,VWS V14.01,2013-03-29 15:11:00,
2013-03-29 10:17:00,59.5,34.6,29.15,East,80,0.0,0.0,39,0.00,,---,0.00,VWS V14.01,2013-03-29 15:17:00,
2013-03-29 10:23:00,60.1,34.4,29.15,East,80,0.0,0.0,38,0.00,,---,0.00,VWS V14.01,2013-03-29 15:23:00,
2013-03-29 10:29:00,61.2,34.7,29.15,East,84,3.6,3.6,37,0.00,,---,0.00,VWS V14.01,2013-03-29 15:29:00,
2013-03-29 10:34:00,61.5,35.0,29.15,NE,53,0.0,0.0,37,0.00,,---,0.00,VWS V14.01,2013-03-29 15:34:00,
2013-03-29 10:39:00,62.2,35.0,29.15,SSE,147,3.1,3.1,36,0.00,,---,0.00,VWS V14.01,2013-03-29 15:39:00,
2013-03-29 10:45:00,63.3,35.2,29.15,South,186,0.0,0.0,35,0.00,,---,0.00,VWS V14.01,2013-03-29 15:45:00,
2013-03-29 10:51:00,63.5,34.7,29.15,ENE,60,3.1,3.1,34,0.00,,---,0.00,VWS V14.01,2013-03-29 15:51:00,
2013-03-29 10:57:00,64.4,35.5,29.15,ENE,60,3.1,3.1,34,0.00,,---,0.00,VWS V14.01,2013-03-29 15:57:00,
2013-03-29 11:02:00,64.6,34.8,29.15,ESE,102,5.8,5.8,33,0.00,,---,0.00,VWS V14.01,2013-03-29 16:02:00,
2013-03-29 11:07:00,64.6,34.8,29.15,ENE,73,5.8,5.8,33,0.00,,---,0.00,VWS V14.01,2013-03-29 16:07:00,
2013-03-29 11:13:00,65.1,33.8,29.15,NE,34,3.6,3.6,31,0.00,,---,0.00,VWS V14.01,2013-03-29 16:13:00,
2013-03-29 11:19:00,65.5,34.9,29.15,East,101,2.7,2.7,32,0.00,,---,0.00,VWS V14.01,2013-03-29 16:19:00,
2013-03-29 11:24:00,66.2,33.9,29.15,SE,145,3.1,3.1,30,0.00,,---,0.00,VWS V14.01,2013-03-29 16:24:00,
2013-03-29 11:29:00,66.2,33.0,29.15,SE,143,5.4,5.4,29,0.00,,---,0.00,VWS V14.01,2013-03-29 16:29:00,
2013-03-29 11:35:00,66.4,33.2,29.15,East,95,4.0,4.0,29,0.00,,---,0.00,VWS V14.01,2013-03-29 16:35:00,
2013-03-29 11:40:00,66.6,33.3,29.15,East,92,5.8,5.8,29,0.00,,---,0.00,VWS V14.01,2013-03-29 16:40:00,
2013-03-29 11:46:00,67.1,32.9,29.15,East,92,4.9,4.9,28,0.00,,---,0.00,VWS V14.01,2013-03-29 16:46:00,
2013-03-29 11:51:00,67.1,33.8,29.15,East,92,4.9,4.9,29,0.00,,---,0.00,VWS V14.01,2013-03-29 16:51:00,
2013-03-29 11:56:00,67.6,32.5,29.15,East,80,6.3,6.3,27,0.00,,---,0.00,VWS V14.01,2013-03-29 16:56:00,
2013-03-29 12:01:00,67.6,32.5,29.15,NNE,23,4.9,4.9,27,0.00,,---,0.00,VWS V14.01,2013-03-29 17:01:00,
2013-03-29 12:07:00,68.4,32.2,29.15,East,87,4.0,4.0,26,0.00,,---,0.00,VWS V14.01,2013-03-29 17:07:00,
2013-03-29 12:12:00,68.9,32.6,29.15,SSE,151,7.2,7.2,26,0.00,,---,0.00,VWS V14.01,2013-03-29 17:12:00,
2013-03-29 12:17:00,69.1,32.8,29.15,South,178,3.1,4.0,26,0.00,,---,0.00,VWS V14.01,2013-03-29 17:17:00,
2013-03-29 12:23:00,69.1,31.8,29.15,South,178,3.1,3.1,25,0.00,,---,0.00,VWS V14.01,2013-03-29 17:23:00,
2013-03-29 12:28:00,69.1,31.8,29.15,ENE,78,3.1,3.1,25,0.00,,---,0.00,VWS V14.01,2013-03-29 17:28:00,
2013-03-29 12:33:00,69.3,32.9,29.15,ENE,78,3.1,3.1,26,0.00,,---,0.00,VWS V14.01,2013-03-29 17:33:00,
2013-03-29 12:38:00,69.1,31.8,29.15,NE,50,5.4,5.4,25,0.00,,---,0.00,VWS V14.01,2013-03-29 17:38:00,
2013-03-29 12:44:00,69.3,32.9,29.15,NNE,31,4.9,4.9,26,0.00,,---,0.00,VWS V14.01,2013-03-29 17:44:00,
2013-03-29 12:50:00,69.3,32.9,29.15,SE,140,5.8,5.8,26,0.00,,---,0.00,VWS V14.01,2013-03-29 17:50:00,
2013-03-29 12:56:00,69.4,34.0,29.15,NNE,24,5.8,5.8,27,0.00,,---,0.00,VWS V14.01,2013-03-29 17:56:00,
2013-03-29 13:01:00,70.0,33.5,29.15,NNE,24,5.8,5.8,26,0.00,,---,0.00,VWS V14.01,2013-03-29 18:01:00,
2013-03-29 13:06:00,70.3,33.9,29.12,NE,39,3.6,3.6,26,0.00,,---,0.00,VWS V14.01,2013-03-29 18:06:00,
2013-03-29 13:11:00,70.3,33.9,29.12,SE,142,0.0,0.0,26,0.00,,---,0.00,VWS V14.01,2013-03-29 18:11:00,
2013-03-29 13:17:00,70.9,34.3,29.12,ESE,114,0.0,3.6,26,0.00,,---,0.00,VWS V14.01,2013-03-29 18:17:00,
2013-03-29 13:23:00,71.6,34.0,29.12,NE,41,8.1,8.1,25,0.00,,---,0.00,VWS V14.01,2013-03-29 18:23:00,
2013-03-29 13:29:00,71.6,34.0,29.12,ENE,57,5.8,5.8,25,0.00,,---,0.00,VWS V14.01,2013-03-29 18:29:00,
2013-03-29 13:34:00,71.6,34.0,29.12,NE,43,0.0,0.0,25,0.00,,---,0.00,VWS V14.01,2013-03-29 18:34:00,
2013-03-29 13:40:00,72.3,34.6,29.12,ESE,104,6.3,6.3,25,0.00,,---,0.00,VWS V14.01,2013-03-29 18:40:00,
2013-03-29 13:45:00,72.5,33.7,29.12,NE,45,5.8,5.8,24,0.00,,---,0.00,VWS V14.01,2013-03-29 18:45:00,
2013-03-29 13:50:00,72.0,33.2,29.09,NE,45,5.8,5.8,24,0.00,,---,0.00,VWS V14.01,2013-03-29 18:50:00,
2013-03-29 13:55:00,72.3,33.5,29.09,SW,233,5.8,5.8,24,0.00,,---,0.00,VWS V14.01,2013-03-29 18:55:00,
2013-03-29 14:00:00,72.3,33.5,29.09,ESE,110,7.6,7.6,24,0.00,,---,0.00,VWS V14.01,2013-03-29 19:00:00,
2013-03-29 14:06:00,72.5,33.7,29.09,SSE,158,4.0,4.0,24,0.00,,---,0.00,VWS V14.01,2013-03-29 19:06:00,
2013-03-29 14:11:00,72.7,33.8,29.09,SE,133,4.0,4.0,24,0.00,,---,0.00,VWS V14.01,2013-03-29 19:11:00,
2013-03-29 14:16:00,72.9,34.0,29.09,SSE,167,0.0,0.0,24,0.00,,---,0.00,VWS V14.01,2013-03-29 19:16:00,
2013-03-29 14:22:00,72.9,34.0,29.09,SSE,167,0.0,0.0,24,0.00,,---,0.00,VWS V14.01,2013-03-29 19:22:00,
2013-03-29 14:27:00,73.9,33.8,29.09,ENE,60,2.7,4.0,23,0.00,,---,0.00,VWS V14.01,2013-03-29 19:27:00,
2013-03-29 14:33:00,74.1,34.0,29.09,SSE,157,2.7,2.7,23,0.00,,---,0.00,VWS V14.01,2013-03-29 19:33:00,
2013-03-29 14:39:00,73.8,33.7,29.09,SSE,147,3.1,3.1,23,0.00,,---,0.00,VWS V14.01,2013-03-29 19:39:00,
2013-03-29 14:44:00,74.1,34.0,29.09,SE,144,5.4,5.4,23,0.00,,---,0.00,VWS V14.01,2013-03-29 19:44:00,
2013-03-29 14:50:00,74.1,34.0,29.09,East,92,4.0,4.0,23,0.00,,---,0.00,VWS V14.01,2013-03-29 19:50:00,
2013-03-29 14:56:00,74.5,33.2,29.09,SSE,155,4.0,4.0,22,0.00,,---,0.00,VWS V14.01,2013-03-29 19:56:00,
2013-03-29 15:02:00,74.7,33.3,29.09,NE,51,3.6,3.6,22,0.00,,---,0.00,VWS V14.01,2013-03-29 20:02:00,
2013-03-29 15:07:00,74.7,33.3,29.09,ESE,108,2.7,2.7,22,0.00,,---,0.00,VWS V14.01,2013-03-29 20:07:00,
2013-03-29 15:13:00,74.7,33.3,29.09,ESE,118,4.0,4.0,22,0.00,,---,0.00,VWS V14.01,2013-03-29 20:13:00,
2013-03-29 15:18:00,74.5,32.0,29.06,SE,128,5.8,5.8,21,0.00,,---,0.00,VWS V14.01,2013-03-29 20:18:00,
2013-03-29 15:23:00,74.5,32.0,29.06,ESE,122,3.6,3.6,21,0.00,,---,0.00,VWS V14.01,2013-03-29 20:23:00,
2013-03-29 15:29:00,74.1,31.7,29.06,SSE,162,4.9,4.9,21,0.00,,---,0.00,VWS V14.01,2013-03-29 20:29:00,
2013-03-29 15:35:00,74.1,31.7,29.06,SW,217,3.1,5.8,21,0.00,,---,0.00,VWS V14.01,2013-03-29 20:35:00,
2013-03-29 15:40:00,74.3,31.9,29.06,ESE,118,4.9,4.9,21,0.00,,---,0.00,VWS V14.01,2013-03-29 20:40:00,
2013-03-29 15:46:00,74.3,31.9,29.06,South,171,4.0,5.4,21,0.00,,---,0.00,VWS V14.01,2013-03-29 20:46:00,
2013-03-29 15:51:00,74.1,31.7,29.06,South,170,2.7,2.7,21,0.00,,---,0.00,VWS V14.01,2013-03-29 20:51:00,
2013-03-29 15:57:00,73.9,27.8,29.06,ENE,73,8.3,8.3,18,0.00,,---,0.00,VWS V14.01,2013-03-29 20:57:00,
2013-03-29 16:02:00,73.9,31.6,29.06,ESE,121,2.2,2.2,21,0.00,,---,0.00,VWS V14.01,2013-03-29 21:02:00,
2013-03-29 16:07:00,73.9,31.6,29.06,East,98,3.1,4.0,21,0.00,,---,0.00,VWS V14.01,2013-03-29 21:07:00,
2013-03-29 16:13:00,74.5,28.2,29.06,SSW,196,2.7,2.7,18,0.00,,---,0.00,VWS V14.01,2013-03-29 21:13:00,
2013-03-29 16:19:00,74.3,31.9,29.06,NW,311,4.9,4.9,21,0.00,,---,0.00,VWS V14.01,2013-03-29 21:19:00,
2013-03-29 16:24:00,73.2,28.5,29.06,SE,128,3.1,6.7,19,0.00,,---,0.00,VWS V14.01,2013-03-29 21:24:00,
2013-03-29 16:29:00,73.2,31.0,29.06,SSE,150,0.0,0.0,21,0.00,,---,0.00,VWS V14.01,2013-03-29 21:29:00,
2013-03-29 16:35:00,73.2,31.0,29.06,SSE,150,8.1,8.1,21,0.00,,---,0.00,VWS V14.01,2013-03-29 21:35:00,
2013-03-29 16:40:00,72.5,30.4,29.06,ESE,119,6.3,6.3,21,0.00,,---,0.00,VWS V14.01,2013-03-29 21:40:00,
2013-03-29 16:45:00,72.5,30.4,29.06,SW,218,3.6,4.0,21,0.00,,---,0.00,VWS V14.01,2013-03-29 21:45:00,
2013-03-29 16:50:00,72.5,27.9,29.06,East,89,3.6,3.6,19,0.00,,---,0.00,VWS V14.01,2013-03-29 21:50:00,
2013-03-29 16:56:00,72.5,30.4,29.06,NE,54,6.3,6.3,21,0.00,,---,0.00,VWS V14.01,2013-03-29 21:56:00,
2013-03-29 17:02:00,72.5,30.4,29.06,SSW,206,2.7,2.7,21,0.00,,---,0.00,VWS V14.01,2013-03-29 22:02:00,
2013-03-29 17:08:00,71.8,29.8,29.06,SE,127,0.0,0.0,21,0.00,,---,0.00,VWS V14.01,2013-03-29 22:08:00,
2013-03-29 17:13:00,71.8,29.8,29.06,West,267,3.1,3.1,21,0.00,,---,0.00,VWS V14.01,2013-03-29 22:13:00,
2013-03-29 17:18:00,71.1,30.3,29.06,WNW,288,3.1,3.1,22,0.00,,---,0.00,VWS V14.01,2013-03-29 22:18:00,
2013-03-29 17:24:00,71.1,30.3,29.06,NW,304,2.7,2.7,22,0.00,,---,0.00,VWS V14.01,2013-03-29 22:24:00,
2013-03-29 17:29:00,71.1,30.3,29.06,ESE,107,3.6,5.8,22,0.00,,---,0.00,VWS V14.01,2013-03-29 22:29:00,
2013-03-29 17:34:00,69.6,29.1,29.06,East,89,5.8,5.8,22,0.00,,---,0.00,VWS V14.01,2013-03-29 22:34:00,
2013-03-29 17:39:00,68.9,28.5,29.06,South,178,2.7,2.7,22,0.00,,---,0.00,VWS V14.01,2013-03-29 22:39:00,
2013-03-29 17:44:00,68.5,28.2,29.06,East,89,3.6,5.4,22,0.00,,---,0.00,VWS V14.01,2013-03-29 22:44:00,
2013-03-29 17:50:00,68.5,28.2,29.06,SW,232,3.1,3.1,22,0.00,,---,0.00,VWS V14.01,2013-03-29 22:50:00,
2013-03-29 17:55:00,67.8,27.6,29.06,NNE,16,3.6,3.6,22,0.00,,---,0.00,VWS V14.01,2013-03-29 22:55:00,
2013-03-29 18:00:00,67.5,27.3,29.06,ESE,119,3.6,5.4,22,0.00,,---,0.00,VWS V14.01,2013-03-29 23:00:00,
2013-03-29 18:06:00,67.1,28.1,29.06,SSW,210,0.0,2.7,23,0.00,,---,0.00,VWS V14.01,2013-03-29 23:06:00,
2013-03-29 18:12:00,67.1,28.1,29.06,ESE,103,5.8,5.8,23,0.00,,---,0.00,VWS V14.01,2013-03-29 23:12:00,
2013-03-29 18:18:00,66.7,27.8,29.06,East,90,2.7,2.7,23,0.00,,---,0.00,VWS V14.01,2013-03-29 23:18:00,
2013-03-29 18:23:00,66.4,27.5,29.06,East,92,2.7,8.7,23,0.00,,---,0.00,VWS V14.01,2013-03-29 23:23:00,
2013-03-29 18:28:00,66.4,27.5,29.06,SSE,156,5.4,5.4,23,0.00,,---,0.00,VWS V14.01,2013-03-29 23:28:00,
2013-03-29 18:34:00,66.0,27.2,29.06,ENE,66,5.8,6.3,23,0.00,,---,0.00,VWS V14.01,2013-03-29 23:34:00,
2013-03-29 18:40:00,65.7,26.9,29.06,SSE,159,2.7,4.5,23,0.00,,---,0.00,VWS V14.01,2013-03-29 23:40:00,
2013-03-29 18:45:00,65.7,26.9,29.06,ESE,109,5.4,5.4,23,0.00,,---,0.00,VWS V14.01,2013-03-29 23:45:00,
2013-03-29 18:51:00,65.3,26.6,29.06,South,169,6.3,6.3,23,0.00,,---,0.00,VWS V14.01,2013-03-29 23:51:00,
2013-03-29 18:56:00,65.1,26.4,29.06,SW,222,3.6,3.6,23,0.00,,---,0.00,VWS V14.01,2013-03-29 23:56:00,
2013-03-29 19:02:00,64.9,26.3,29.06,SE,127,0.0,0.0,23,0.00,,---,0.00,VWS V14.01,2013-03-30 00:02:00,
2013-03-29 19:08:00,64.8,26.1,29.06,North,4,0.0,0.0,23,0.00,,---,0.00,VWS V14.01,2013-03-30 00:08:00,
2013-03-29 19:14:00,64.8,26.1,29.06,South,189,0.0,0.0,23,0.00,,---,0.00,VWS V14.01,2013-03-30 00:14:00,
2013-03-29 19:19:00,63.9,26.4,29.06,East,82,0.0,3.1,24,0.00,,---,0.00,VWS V14.01,2013-03-30 00:19:00,
2013-03-29 19:24:00,63.1,25.8,29.06,SSE,148,0.0,0.0,24,0.00,,---,0.00,VWS V14.01,2013-03-30 00:24:00,
2013-03-29 19:30:00,63.0,25.6,29.06,SSE,165,0.0,0.0,24,0.00,,---,0.00,VWS V14.01,2013-03-30 00:30:00,
2013-03-29 19:36:00,63.0,25.6,29.06,ESE,113,2.2,2.2,24,0.00,,---,0.00,VWS V14.01,2013-03-30 00:36:00,
2013-03-29 19:42:00,61.9,25.7,29.06,SE,138,0.0,0.0,25,0.00,,---,0.00,VWS V14.01,2013-03-30 00:42:00,
2013-03-29 19:47:00,61.9,25.7,29.06,ESE,120,0.0,0.0,25,0.00,,---,0.00,VWS V14.01,2013-03-30 00:47:00,
2013-03-29 19:52:00,61.0,25.9,29.06,SSW,204,0.0,0.0,26,0.00,,---,0.00,VWS V14.01,2013-03-30 00:52:00,
2013-03-29 19:58:00,61.0,25.9,29.06,SE,136,0.0,0.0,26,0.00,,---,0.00,VWS V14.01,2013-03-30 00:58:00,
2013-03-29 20:03:00,60.1,28.6,29.06,SE,135,0.0,0.0,30,0.00,,---,0.00,VWS V14.01,2013-03-30 01:03:00,
2013-03-29 20:08:00,59.7,28.3,29.06,SE,139,0.0,0.0,30,0.00,,---,0.00,VWS V14.01,2013-03-30 01:08:00,
2013-03-29 20:13:00,59.7,28.3,29.06,SSE,160,0.0,0.0,30,0.00,,---,0.00,VWS V14.01,2013-03-30 01:13:00,
2013-03-29 20:18:00,59.2,30.9,29.06,SSE,160,0.0,0.0,34,0.00,,---,0.00,VWS V14.01,2013-03-30 01:18:00,
2013-03-29 20:24:00,59.2,30.9,29.06,SSE,160,0.0,0.0,34,0.00,,---,0.00,VWS V14.01,2013-03-30 01:24:00,
2013-03-29 20:30:00,58.5,30.9,29.06,SSE,160,0.0,0.0,35,0.00,,---,0.00,VWS V14.01,2013-03-30 01:30:00,
2013-03-29 20:36:00,58.3,30.8,29.06,SSW,196,0.0,0.0,35,0.00,,---,0.00,VWS V14.01,2013-03-30 01:36:00,
2013-03-29 20:41:00,58.1,30.6,29.06,WSW,241,0.0,0.0,35,0.00,,---,0.00,VWS V14.01,2013-03-30 01:41:00,
2013-03-29 20:46:00,58.1,30.6,29.06,ESE,119,0.0,0.0,35,0.00,,---,0.00,VWS V14.01,2013-03-30 01:46:00,
2013-03-29 20:52:00,57.9,31.1,29.06,ESE,109,0.0,0.0,36,0.00,,---,0.00,VWS V14.01,2013-03-30 01:52:00,
2013-03-29 20:57:00,57.9,31.1,29.06,SSW,206,0.0,0.0,36,0.00,,---,0.00,VWS V14.01,2013-03-30 01:57:00,
2013-03-29 21:02:00,57.6,30.8,29.06,SE,141,0.0,0.0,36,0.00,,---,0.00,VWS V14.01,2013-03-30 02:02:00,
2013-03-29 21:08:00,57.2,31.2,29.06,SE,146,0.0,0.0,37,0.00,,---,0.00,VWS V14.01,2013-03-30 02:08:00,
2013-03-29 21:14:00,57.2,31.2,29.06,SE,134,0.0,0.0,37,0.00,,---,0.00,VWS V14.01,2013-03-30 02:14:00,
2013-03-29 21:20:00,57.0,31.7,29.06,SSE,148,0.0,0.0,38,0.00,,---,0.00,VWS V14.01,2013-03-30 02:20:00,
2013-03-29 21:25:00,56.8,32.2,29.06,SSE,148,0.0,0.0,39,0.00,,---,0.00,VWS V14.01,2013-03-30 02:25:00,
2013-03-29 21:30:00,56.7,32.0,29.06,SE,146,0.0,0.0,39,0.00,,---,0.00,VWS V14.01,2013-03-30 02:30:00,
2013-03-29 21:36:00,56.1,31.5,29.06,SE,146,0.0,0.0,39,0.00,,---,0.00,VWS V14.01,2013-03-30 02:36:00,
2013-03-29 21:42:00,55.9,32.6,29.06,SE,146,0.0,0.0,41,0.00,,---,0.00,VWS V14.01,2013-03-30 02:42:00,
2013-03-29 21:48:00,55.9,32.6,29.06,South,170,0.0,0.0,41,0.00,,---,0.00,VWS V14.01,2013-03-30 02:48:00,
2013-03-29 21:53:00,55.4,33.3,29.06,WNW,301,0.0,0.0,43,0.00,,---,0.00,VWS V14.01,2013-03-30 02:53:00,
2013-03-29 21:58:00,55.0,33.5,29.06,ENE,76,0.0,0.0,44,0.00,,---,0.00,VWS V14.01,2013-03-30 02:58:00,
2013-03-29 22:03:00,54.9,34.5,29.06,SE,145,0.0,0.0,46,0.00,,---,0.00,VWS V14.01,2013-03-30 03:03:00,
2013-03-29 22:09:00,54.9,34.5,29.06,SE,140,0.0,0.0,46,0.00,,---,0.00,VWS V14.01,2013-03-30 03:09:00,
2013-03-29 22:14:00,54.9,34.5,29.06,ESE,103,0.0,0.0,46,0.00,,---,0.00,VWS V14.01,2013-03-30 03:14:00,
2013-03-29 22:19:00,54.7,34.9,29.06,South,191,0.0,0.0,47,0.00,,---,0.00,VWS V14.01,2013-03-30 03:19:00,
2013-03-29 22:25:00,54.5,34.7,29.06,SE,129,0.0,0.0,47,0.00,,---,0.00,VWS V14.01,2013-03-30 03:25:00,
2013-03-29 22:31:00,54.3,35.1,29.06,SE,141,0.0,0.0,48,0.00,,---,0.00,VWS V14.01,2013-03-30 03:31:00,
2013-03-29 22:36:00,54.0,34.7,29.06,SE,130,0.0,0.0,48,0.00,,---,0.00,VWS V14.01,2013-03-30 03:36:00,
2013-03-29 22:42:00,53.8,35.1,29.06,SE,135,0.0,0.0,49,0.00,,---,0.00,VWS V14.01,2013-03-30 03:42:00,
2013-03-29 22:47:00,53.8,36.1,29.06,SE,128,3.1,3.1,51,0.00,,---,0.00,VWS V14.01,2013-03-30 03:47:00,
2013-03-29 22:52:00,53.8,36.6,29.06,ESE,109,0.0,0.0,52,0.00,,---,0.00,VWS V14.01,2013-03-30 03:52:00,
2013-03-29 22:57:00,53.8,37.1,29.06,SE,133,0.0,0.0,53,0.00,,---,0.00,VWS V14.01,2013-03-30 03:57:00,
2013-03-29 23:00:00,53.8,37.1,29.06,East,86,0.0,0.0,53,0.00,,---,0.00,VWS V14.01,2013-03-30 04:00:00,
2013-03-29 23:01:00,53.8,37.1,29.06,SW,217,0.0,0.0,53,0.00,,---,0.00,VWS V14.01,2013-03-30 04:01:00,
2013-03-29 23:07:00,54.0,38.6,29.06,ESE,119,2.2,3.1,56,0.00,,---,0.00,VWS V14.01,2013-03-30 04:07:00,
2013-03-29 23:13:00,54.1,38.8,29.06,WSW,246,0.0,0.0,56,0.00,,---,0.00,VWS V14.01,2013-03-30 04:13:00,
2013-03-29 23:18:00,54.1,39.7,29.06,WNW,297,0.0,0.0,58,0.00,,---,0.00,VWS V14.01,2013-03-30 04:18:00,
2013-03-29 23:23:00,54.1,39.3,29.03,SSW,200,0.0,0.0,57,0.00,,---,0.00,VWS V14.01,2013-03-30 04:23:00,
2013-03-29 23:28:00,54.0,39.1,29.03,South,173,0.0,3.6,57,0.00,,---,0.00,VWS V14.01,2013-03-30 04:28:00,
2013-03-29 23:34:00,54.0,39.5,29.03,South,190,0.0,0.0,58,0.00,,---,0.00,VWS V14.01,2013-03-30 04:34:00,
2013-03-29 23:40:00,53.8,38.9,29.03,East,94,2.2,2.7,57,0.00,,---,0.00,VWS V14.01,2013-03-30 04:40:00,
2013-03-29 23:42:00,53.8,38.9,29.03,SSE,147,0.0,0.0,57,0.00,,---,0.00,VWS V14.01,2013-03-30 04:42:00,
2013-03-29 23:48:00,53.6,39.2,29.03,South,185,4.0,4.0,58,0.00,,---,0.00,VWS V14.01,2013-03-30 04:48:00,
2013-03-29 23:53:00,53.4,39.9,29.03,South,172,0.0,0.0,60,0.00,,---,0.00,VWS V14.01,2013-03-30 04:53:00,
2013-03-29 23:59:00,53.1,39.1,29.03,South,170,0.0,0.0,59,0.00,,---,0.00,VWS V14.01,2013-03-30 04:59:00,